Time;durP1;ratioP1;P1;durP2;ratioP2;P2;SDS_P1;SDS_P2;PMS_P1;PMS_P2;Temp;Humidity;BMP_temperature;BMP_pressure;BME280_temperature;BME280_humidity;BME280_pressure;Samples;Min_cycle;Max_cycle;Signal;HPM_P1;HPM_P2
2023/04/21 00:01:52;;;;;;;4.53;2.80;;;;;;;;;;5041666;28;20460;-74
2023/04/21 00:04:18;;;;;;;7.43;3.20;;;;;;;;;;5037751;28;20031;-75
2023/04/21 00:06:44;;;;;;;8.25;2.95;;;;;;;;;;5048953;28;20044;-74
2023/04/21 00:09:11;;;;;;;13.75;3.80;;;;;;;;;;5041994;28;20026;-73
2023/04/21 00:11:37;;;;;;;11.90;3.35;;;;;;;;;;5046144;28;20021;-73
2023/04/21 00:14:03;;;;;;;8.40;3.50;;;;;;;;;;5042393;28;20025;-73
2023/04/21 00:16:29;;;;;;;5.78;3.65;;;;;;;;;;5039146;28;20460;-73
2023/04/21 00:18:55;;;;;;;7.03;4.05;;;;;;;;;;5044226;28;20324;-72
2023/04/21 00:21:21;;;;;;;4.15;3.00;;;;;;;;;;5044734;28;20026;-73
2023/04/21 00:23:48;;;;;;;6.68;2.58;;;;;;;;;;5030083;28;20052;-74
2023/04/21 00:26:15;;;;;;;3.63;2.63;;;;;;;;;;5041399;28;20039;-74
2023/04/21 00:28:41;;;;;;;8.32;2.95;;;;;;;;;;5044781;28;20043;-74
2023/04/21 00:31:07;;;;;;;5.28;3.53;;;;;;;;;;5040731;28;20183;-73
2023/04/21 00:33:33;;;;;;;12.40;3.05;;;;;;;;;;5042061;28;20084;-74
2023/04/21 00:35:59;;;;;;;7.32;3.25;;;;;;;;;;5050560;28;20029;-73
2023/04/21 00:38:25;;;;;;;6.65;3.25;;;;;;;;;;5047655;28;20510;-73
2023/04/21 00:40:52;;;;;;;5.38;2.80;;;;;;;;;;5044676;28;20131;-73
2023/04/21 00:43:18;;;;;;;5.35;2.55;;;;;;;;;;5045849;28;20032;-73
2023/04/21 00:45:45;;;;;;;4.25;2.45;;;;;;;;;;5045531;28;20025;-74
2023/04/21 00:48:12;;;;;;;9.48;2.70;;;;;;;;;;5037990;28;20071;-74
2023/04/21 00:50:38;;;;;;;4.93;2.75;;;;;;;;;;5041219;28;20025;-73
2023/04/21 00:53:04;;;;;;;7.55;3.05;;;;;;;;;;5037550;28;20036;-74
2023/04/21 00:55:30;;;;;;;4.55;2.75;;;;;;;;;;5044501;28;20430;-73
2023/04/21 00:57:56;;;;;;;3.60;2.53;;;;;;;;;;5049094;28;20021;-73
2023/04/21 01:00:22;;;;;;;5.13;2.60;;;;;;;;;;5045412;28;20441;-73
2023/04/21 01:02:49;;;;;;;9.13;3.40;;;;;;;;;;5050125;28;20029;-73
2023/04/21 01:05:16;;;;;;;3.42;2.40;;;;;;;;;;5059528;28;20099;-73
2023/04/21 01:07:43;;;;;;;3.67;2.38;;;;;;;;;;5044563;28;20068;-74
2023/04/21 01:10:09;;;;;;;3.20;2.40;;;;;;;;;;5045289;28;20036;-74
2023/04/21 01:12:45;;;;;;;10.00;3.00;;;;;;;;;;5045050;28;20206;-73
2023/04/21 01:15:12;;;;;;;6.35;3.03;;;;;;;;;;5038032;28;20438;-74
2023/04/21 01:17:39;;;;;;;4.65;2.53;;;;;;;;;;5051820;28;20491;-75
2023/04/21 01:20:09;;;;;;;4.45;3.20;;;;;;;;;;5046364;28;20025;-74
2023/04/21 01:22:40;;;;;;;6.10;3.85;;;;;;;;;;5040131;28;20029;-74
2023/04/21 01:25:06;;;;;;;8.55;3.15;;;;;;;;;;5052038;28;20029;-74
2023/04/21 01:27:32;;;;;;;6.45;3.03;;;;;;;;;;5044219;28;20513;-74
2023/04/21 01:29:59;;;;;;;6.80;2.97;;;;;;;;;;5046297;28;20515;-74
2023/04/21 01:32:26;;;;;;;5.40;3.60;;;;;;;;;;5043864;28;20021;-73
2023/04/21 01:34:53;;;;;;;6.18;3.00;;;;;;;;;;5045102;28;20474;-73
2023/04/21 01:37:21;;;;;;;9.98;4.03;;;;;;;;;;5045959;28;20025;-73
2023/04/21 01:39:53;;;;;;;13.00;3.78;;;;;;;;;;5052271;28;20027;-74
2023/04/21 01:42:19;;;;;;;5.35;3.03;;;;;;;;;;5038005;28;20034;-74
2023/04/21 01:44:45;;;;;;;5.78;3.35;;;;;;;;;;5047720;28;20018;-73
2023/04/21 01:47:12;;;;;;;7.38;3.47;;;;;;;;;;5038008;28;20067;-74
2023/04/21 01:49:38;;;;;;;7.95;4.25;;;;;;;;;;5031451;28;20026;-73
2023/04/21 01:52:04;;;;;;;4.20;3.33;;;;;;;;;;5041470;28;20139;-74
2023/04/21 01:54:30;;;;;;;6.70;3.33;;;;;;;;;;5028402;28;20065;-74
2023/04/21 01:56:56;;;;;;;8.63;3.33;;;;;;;;;;5042501;28;20056;-73
2023/04/21 01:59:22;;;;;;;9.23;3.53;;;;;;;;;;5053077;28;20021;-74
2023/04/21 02:01:48;;;;;;;6.35;3.40;;;;;;;;;;5041603;28;20025;-73
2023/04/21 02:04:15;;;;;;;4.80;3.00;;;;;;;;;;5039086;28;20018;-73
2023/04/21 02:06:41;;;;;;;5.68;3.45;;;;;;;;;;5045402;28;20025;-74
2023/04/21 02:09:07;;;;;;;6.85;3.40;;;;;;;;;;5043423;28;20025;-73
2023/04/21 02:11:33;;;;;;;5.68;3.60;;;;;;;;;;5040108;28;20082;-73
2023/04/21 02:13:59;;;;;;;10.48;3.63;;;;;;;;;;5048208;28;20033;-74
2023/04/21 02:16:25;;;;;;;6.93;3.72;;;;;;;;;;5039575;28;20036;-74
2023/04/21 02:18:52;;;;;;;8.63;3.63;;;;;;;;;;5046956;28;20387;-74
2023/04/21 02:21:19;;;;;;;11.27;3.67;;;;;;;;;;5045241;28;20085;-74
2023/04/21 02:23:45;;;;;;;6.07;3.13;;;;;;;;;;5037410;28;20022;-73
2023/04/21 02:26:11;;;;;;;7.57;4.00;;;;;;;;;;5045825;28;20052;-73
2023/04/21 02:28:38;;;;;;;11.35;4.10;;;;;;;;;;5047361;28;20486;-73
2023/04/21 02:31:04;;;;;;;10.23;3.80;;;;;;;;;;5044302;28;20134;-73
2023/04/21 02:33:30;;;;;;;7.75;3.72;;;;;;;;;;5045236;28;20025;-73
2023/04/21 02:35:56;;;;;;;7.40;4.80;;;;;;;;;;5047239;28;20395;-72
2023/04/21 02:38:22;;;;;;;12.45;3.95;;;;;;;;;;5048160;28;20051;-73
2023/04/21 02:40:49;;;;;;;8.23;3.72;;;;;;;;;;5049140;28;20021;-73
2023/04/21 02:43:15;;;;;;;11.88;4.55;;;;;;;;;;5035598;28;20313;-75
2023/04/21 02:45:41;;;;;;;12.10;5.25;;;;;;;;;;5045370;28;20061;-74
2023/04/21 02:48:08;;;;;;;8.55;3.78;;;;;;;;;;5047848;28;20027;-74
2023/04/21 02:50:38;;;;;;;6.65;3.55;;;;;;;;;;5048881;28;20494;-73
2023/04/21 02:53:04;;;;;;;9.18;4.40;;;;;;;;;;5046778;28;20187;-73
2023/04/21 02:55:30;;;;;;;9.70;4.07;;;;;;;;;;5049578;28;20064;-72
2023/04/21 02:57:57;;;;;;;8.05;4.90;;;;;;;;;;5038277;28;20090;-74
2023/04/21 03:00:23;;;;;;;9.23;5.00;;;;;;;;;;5035961;28;20291;-74
2023/04/21 03:02:51;;;;;;;15.27;4.40;;;;;;;;;;5032446;28;20566;-75
2023/04/21 03:05:17;;;;;;;9.25;4.00;;;;;;;;;;5034533;28;20382;-73
2023/04/21 03:07:45;;;;;;;10.65;4.40;;;;;;;;;;5042771;28;20033;-74
2023/04/21 03:10:11;;;;;;;9.43;3.97;;;;;;;;;;5048041;28;20083;-73
2023/04/21 03:12:37;;;;;;;8.98;4.93;;;;;;;;;;5045709;28;20037;-73
2023/04/21 03:15:03;;;;;;;11.18;4.15;;;;;;;;;;5047673;28;20160;-74
2023/04/21 03:17:30;;;;;;;7.93;4.15;;;;;;;;;;5046564;28;20051;-73
2023/04/21 03:19:56;;;;;;;11.15;4.13;;;;;;;;;;5043954;28;20021;-73
2023/04/21 03:22:26;;;;;;;7.40;4.43;;;;;;;;;;5042704;28;20030;-74
2023/04/21 03:24:52;;;;;;;10.40;4.20;;;;;;;;;;5062680;28;20021;-75
2023/04/21 03:27:18;;;;;;;9.50;5.00;;;;;;;;;;5043009;28;20039;-73
2023/04/21 03:29:44;;;;;;;8.27;4.43;;;;;;;;;;5039959;28;20487;-74
2023/04/21 03:32:10;;;;;;;9.68;4.63;;;;;;;;;;5048684;28;20036;-74
2023/04/21 03:34:36;;;;;;;9.63;4.40;;;;;;;;;;5034603;28;20088;-74
2023/04/21 03:37:02;;;;;;;12.75;4.88;;;;;;;;;;5041997;28;20541;-74
2023/04/21 03:39:28;;;;;;;9.65;4.55;;;;;;;;;;5044543;28;20498;-74
2023/04/21 03:41:55;;;;;;;9.77;4.60;;;;;;;;;;5046399;28;20030;-74
2023/04/21 03:44:21;;;;;;;10.55;4.28;;;;;;;;;;5059735;28;20025;-73
2023/04/21 03:46:47;;;;;;;10.35;4.43;;;;;;;;;;5032129;28;20024;-73
2023/04/21 03:49:13;;;;;;;9.60;4.78;;;;;;;;;;5042401;28;20029;-73
2023/04/21 03:51:40;;;;;;;9.70;4.22;;;;;;;;;;5044757;28;20029;-73
2023/04/21 03:54:07;;;;;;;9.25;4.97;;;;;;;;;;5039098;28;20391;-72
2023/04/21 03:56:33;;;;;;;8.15;4.85;;;;;;;;;;5031860;28;20052;-74
2023/04/21 03:58:59;;;;;;;7.15;4.05;;;;;;;;;;5043205;28;20399;-73
2023/04/21 04:01:25;;;;;;;8.45;5.47;;;;;;;;;;5048584;28;20363;-74
2023/04/21 04:03:51;;;;;;;6.78;4.13;;;;;;;;;;5047954;28;20374;-74
2023/04/21 04:06:17;;;;;;;6.35;3.78;;;;;;;;;;5053772;28;20479;-74
2023/04/21 04:08:43;;;;;;;8.77;4.80;;;;;;;;;;5048174;28;20550;-72
2023/04/21 04:11:09;;;;;;;13.48;4.88;;;;;;;;;;5047595;28;20036;-73
2023/04/21 04:13:35;;;;;;;8.38;4.72;;;;;;;;;;5051092;28;20513;-74
2023/04/21 04:16:02;;;;;;;9.48;4.72;;;;;;;;;;5047594;28;20033;-73
2023/04/21 04:18:28;;;;;;;5.28;4.03;;;;;;;;;;5048002;28;20025;-74
2023/04/21 04:20:54;;;;;;;6.68;4.07;;;;;;;;;;5046744;28;20032;-74
2023/04/21 04:23:20;;;;;;;7.40;4.25;;;;;;;;;;5039238;28;20039;-73
2023/04/21 04:25:48;;;;;;;12.63;4.22;;;;;;;;;;5049776;28;20028;-74
2023/04/21 04:28:14;;;;;;;9.45;3.88;;;;;;;;;;5043187;28;20025;-74
2023/04/21 04:30:40;;;;;;;7.10;3.90;;;;;;;;;;5047234;28;20036;-74
2023/04/21 04:33:07;;;;;;;9.95;4.72;;;;;;;;;;5050554;28;20070;-73
2023/04/21 04:35:34;;;;;;;10.45;4.15;;;;;;;;;;5046203;28;20075;-73
2023/04/21 04:38:01;;;;;;;8.07;4.15;;;;;;;;;;5046664;28;20063;-74
2023/04/21 04:40:28;;;;;;;6.35;4.07;;;;;;;;;;5039565;28;20053;-74
2023/04/21 04:42:54;;;;;;;10.20;5.20;;;;;;;;;;5045591;28;20143;-74
2023/04/21 04:45:21;;;;;;;9.75;5.13;;;;;;;;;;5047437;28;20017;-74
2023/04/21 04:47:47;;;;;;;10.15;4.25;;;;;;;;;;5043240;28;20059;-73
2023/04/21 04:50:13;;;;;;;12.40;4.32;;;;;;;;;;5050139;28;20067;-73
2023/04/21 04:52:39;;;;;;;7.18;3.78;;;;;;;;;;5051493;28;20029;-74
2023/04/21 04:55:06;;;;;;;9.75;4.43;;;;;;;;;;5046632;28;20519;-75
2023/04/21 04:57:32;;;;;;;8.80;4.57;;;;;;;;;;5046554;28;20029;-74
2023/04/21 04:59:58;;;;;;;11.05;5.15;;;;;;;;;;5047323;28;20025;-73
2023/04/21 05:02:24;;;;;;;9.32;4.65;;;;;;;;;;5050611;28;20036;-73
2023/04/21 05:04:51;;;;;;;10.93;4.82;;;;;;;;;;5055963;28;20696;-74
2023/04/21 05:07:17;;;;;;;8.60;4.60;;;;;;;;;;5048587;28;20052;-72
2023/04/21 05:09:43;;;;;;;11.63;4.70;;;;;;;;;;5048557;28;20479;-73
2023/04/21 05:12:10;;;;;;;10.45;5.20;;;;;;;;;;5053053;28;20561;-72
2023/04/21 05:14:36;;;;;;;7.88;4.10;;;;;;;;;;5049706;28;20202;-73
2023/04/21 05:17:02;;;;;;;7.75;5.05;;;;;;;;;;5048556;28;20115;-73
2023/04/21 05:19:28;;;;;;;15.55;5.05;;;;;;;;;;5052257;28;20032;-75
2023/04/21 05:21:59;;;;;;;12.65;5.15;;;;;;;;;;5050414;28;20136;-74
2023/04/21 05:24:25;;;;;;;10.15;4.55;;;;;;;;;;5046564;28;20051;-74
2023/04/21 05:26:51;;;;;;;8.75;4.85;;;;;;;;;;5054189;28;20029;-74
2023/04/21 05:29:17;;;;;;;10.75;4.72;;;;;;;;;;5048643;28;20174;-74
2023/04/21 05:31:44;;;;;;;9.90;4.00;;;;;;;;;;5041548;28;20017;-74
2023/04/21 05:34:10;;;;;;;12.23;4.47;;;;;;;;;;5045743;28;20025;-73
2023/04/21 05:36:36;;;;;;;9.55;5.13;;;;;;;;;;5045549;28;20040;-74
2023/04/21 05:39:02;;;;;;;10.75;5.22;;;;;;;;;;5046714;28;20297;-73
2023/04/21 05:41:29;;;;;;;8.65;5.28;;;;;;;;;;5044018;28;20025;-73
2023/04/21 05:43:56;;;;;;;11.27;5.47;;;;;;;;;;5050055;28;20090;-73
2023/04/21 05:46:22;;;;;;;8.75;5.10;;;;;;;;;;5049603;28;20623;-74
2023/04/21 05:48:48;;;;;;;9.38;4.70;;;;;;;;;;5045159;28;20431;-74
2023/04/21 05:51:14;;;;;;;11.30;4.75;;;;;;;;;;5045424;28;20481;-74
2023/04/21 05:53:41;;;;;;;9.52;4.80;;;;;;;;;;5037817;28;20017;-74
2023/04/21 05:56:10;;;;;;;8.95;4.40;;;;;;;;;;5054067;28;20123;-74
2023/04/21 05:58:37;;;;;;;9.15;4.57;;;;;;;;;;5049714;28;20100;-73
2023/04/21 06:01:05;;;;;;;12.65;5.53;;;;;;;;;;5050067;28;20028;-72
2023/04/21 06:03:31;;;;;;;9.82;6.10;;;;;;;;;;5042735;28;20044;-73
2023/04/21 06:05:57;;;;;;;12.38;5.35;;;;;;;;;;5049931;28;20044;-73
2023/04/21 06:08:24;;;;;;;10.30;4.57;;;;;;;;;;5053796;28;20029;-74
2023/04/21 06:10:50;;;;;;;13.77;5.22;;;;;;;;;;5045360;28;20025;-73
2023/04/21 06:13:16;;;;;;;7.32;4.85;;;;;;;;;;5040939;28;20057;-73
2023/04/21 06:15:42;;;;;;;7.90;4.43;;;;;;;;;;5041329;28;20025;-72
2023/04/21 06:18:08;;;;;;;8.90;5.20;;;;;;;;;;5052464;28;20069;-72
2023/04/21 06:20:34;;;;;;;11.30;5.03;;;;;;;;;;5045281;28;20363;-75
2023/04/21 06:23:01;;;;;;;12.65;5.25;;;;;;;;;;5052266;28;20033;-75
2023/04/21 06:25:27;;;;;;;8.07;4.70;;;;;;;;;;5048646;28;20048;-74
2023/04/21 06:27:53;;;;;;;10.23;4.85;;;;;;;;;;5054499;28;20025;-73
2023/04/21 06:30:19;;;;;;;11.93;5.00;;;;;;;;;;5048277;28;20597;-75
2023/04/21 06:32:46;;;;;;;13.52;5.28;;;;;;;;;;5052186;28;20021;-75
2023/04/21 06:35:13;;;;;;;8.18;4.63;;;;;;;;;;5044875;28;20013;-74
2023/04/21 06:37:40;;;;;;;12.70;5.05;;;;;;;;;;5048536;28;20039;-74
2023/04/21 06:40:06;;;;;;;14.50;6.82;;;;;;;;;;5043867;28;20339;-73
2023/04/21 06:42:32;;;;;;;12.93;6.07;;;;;;;;;;5050517;28;20087;-74
2023/04/21 06:44:58;;;;;;;11.35;5.50;;;;;;;;;;5051527;28;20120;-74
2023/04/21 06:47:25;;;;;;;17.40;5.55;;;;;;;;;;5051513;28;20439;-74
2023/04/21 06:49:51;;;;;;;14.75;5.40;;;;;;;;;;5053628;28;20021;-73
2023/04/21 06:52:17;;;;;;;7.85;5.15;;;;;;;;;;5051692;28;20029;-73
2023/04/21 06:54:43;;;;;;;8.25;5.03;;;;;;;;;;5052956;28;20046;-74
2023/04/21 06:57:09;;;;;;;8.82;4.53;;;;;;;;;;5048027;28;20090;-75
2023/04/21 06:59:35;;;;;;;7.30;5.65;;;;;;;;;;5050239;28;20057;-74
2023/04/21 07:02:01;;;;;;;11.75;5.38;;;;;;;;;;5050483;28;20056;-73
2023/04/21 07:04:30;;;;;;;7.60;4.85;;;;;;;;;;5050481;28;20418;-74
2023/04/21 07:06:56;;;;;;;8.70;4.55;;;;;;;;;;5042584;28;20024;-73
2023/04/21 07:09:22;;;;;;;10.20;5.38;;;;;;;;;;5046946;28;20103;-73
2023/04/21 07:11:49;;;;;;;9.63;6.00;;;;;;;;;;5051374;28;20151;-74
2023/04/21 07:14:15;;;;;;;5.80;4.80;;;;;;;;;;5054284;28;20036;-73
2023/04/21 07:16:41;;;;;;;10.30;5.20;;;;;;;;;;5045011;28;20041;-74
2023/04/21 07:19:07;;;;;;;11.65;5.75;;;;;;;;;;5049098;28;20387;-73
2023/04/21 07:21:35;;;;;;;10.63;4.60;;;;;;;;;;5049753;28;20033;-73
2023/04/21 07:24:01;;;;;;;11.70;5.63;;;;;;;;;;5050889;28;20025;-74
2023/04/21 07:26:27;;;;;;;8.57;4.90;;;;;;;;;;5050297;28;20151;-74
2023/04/21 07:28:54;;;;;;;12.50;5.30;;;;;;;;;;5042934;28;20035;-75
2023/04/21 07:31:20;;;;;;;16.35;5.22;;;;;;;;;;5055941;28;20104;-74
2023/04/21 07:33:46;;;;;;;11.43;4.82;;;;;;;;;;5043973;28;20037;-74
2023/04/21 07:36:13;;;;;;;10.95;6.20;;;;;;;;;;5048125;28;20061;-74
2023/04/21 07:38:42;;;;;;;10.52;5.10;;;;;;;;;;5042249;28;20013;-73
2023/04/21 07:41:08;;;;;;;8.15;5.15;;;;;;;;;;5048636;28;20017;-74
2023/04/21 07:43:34;;;;;;;9.93;5.10;;;;;;;;;;5040467;28;20053;-74
2023/04/21 07:46:00;;;;;;;10.35;5.35;;;;;;;;;;5048549;28;20147;-74
2023/04/21 07:48:26;;;;;;;8.20;5.28;;;;;;;;;;5045120;28;20029;-74
2023/04/21 07:50:52;;;;;;;13.25;5.50;;;;;;;;;;5051978;28;20037;-75
2023/04/21 07:53:21;;;;;;;10.27;4.70;;;;;;;;;;5048121;28;20037;-74
2023/04/21 07:55:47;;;;;;;10.40;4.97;;;;;;;;;;5050999;28;20068;-74
2023/04/21 07:58:15;;;;;;;15.38;5.75;;;;;;;;;;5046288;28;20024;-75
2023/04/21 08:00:41;;;;;;;11.18;5.90;;;;;;;;;;5048542;28;20482;-75
2023/04/21 08:03:07;;;;;;;11.55;6.45;;;;;;;;;;5047892;28;20108;-75
2023/04/21 08:05:33;;;;;;;11.00;5.63;;;;;;;;;;5040015;28;20032;-74
2023/04/21 08:07:59;;;;;;;11.65;5.70;;;;;;;;;;5047128;28;20032;-74
2023/04/21 08:10:26;;;;;;;8.63;4.85;;;;;;;;;;5047780;28;20021;-74
2023/04/21 08:12:52;;;;;;;12.82;5.88;;;;;;;;;;5045098;28;20475;-74
2023/04/21 08:15:18;;;;;;;9.38;5.93;;;;;;;;;;5049514;28;20029;-74
2023/04/21 08:17:44;;;;;;;11.40;6.70;;;;;;;;;;5057890;28;20044;-74
2023/04/21 08:20:11;;;;;;;13.30;6.32;;;;;;;;;;5050583;28;20048;-75
2023/04/21 08:22:37;;;;;;;8.70;6.07;;;;;;;;;;5046007;28;20024;-74
2023/04/21 08:25:04;;;;;;;9.57;5.07;;;;;;;;;;5048001;28;20555;-75
2023/04/21 08:27:30;;;;;;;8.25;5.28;;;;;;;;;;5050782;28;20017;-75
2023/04/21 08:29:56;;;;;;;10.25;5.18;;;;;;;;;;5049529;28;20524;-76
2023/04/21 08:32:23;;;;;;;13.30;5.40;;;;;;;;;;5051394;28;20033;-75
2023/04/21 08:34:53;;;;;;;13.00;5.30;;;;;;;;;;5053171;28;20024;-75
2023/04/21 08:37:20;;;;;;;13.50;5.95;;;;;;;;;;5035263;28;20029;-74
2023/04/21 08:39:46;;;;;;;16.27;5.63;;;;;;;;;;5046918;28;20033;-75
2023/04/21 08:42:14;;;;;;;12.05;5.50;;;;;;;;;;5046274;28;20320;-75
2023/04/21 08:44:40;;;;;;;11.38;4.90;;;;;;;;;;5046523;28;20053;-74
2023/04/21 08:47:09;;;;;;;12.43;5.32;;;;;;;;;;5036252;28;20029;-74
2023/04/21 08:49:37;;;;;;;13.40;5.30;;;;;;;;;;5042898;28;20376;-74
2023/04/21 08:52:03;;;;;;;13.25;5.85;;;;;;;;;;5052443;28;20040;-75
2023/04/21 08:54:30;;;;;;;13.60;5.00;;;;;;;;;;5046806;28;20024;-73
2023/04/21 08:56:56;;;;;;;12.80;6.13;;;;;;;;;;5051935;28;20087;-75
2023/04/21 08:59:22;;;;;;;15.77;6.18;;;;;;;;;;5045548;28;20025;-75
2023/04/21 09:02:08;;;;;;;12.20;5.60;;;;;;;;;;5043361;28;20022;-75
2023/04/21 09:04:34;;;;;;;8.80;5.10;;;;;;;;;;5045908;28;20548;-74
2023/04/21 09:07:00;;;;;;;10.70;6.00;;;;;;;;;;5051384;28;20037;-72
2023/04/21 09:09:26;;;;;;;14.85;5.95;;;;;;;;;;5047776;28;20033;-74
2023/04/21 09:11:57;;;;;;;16.33;5.97;;;;;;;;;;5052360;28;20029;-73
2023/04/21 09:14:28;;;;;;;8.35;5.30;;;;;;;;;;5050161;28;20569;-73
2023/04/21 09:17:01;;;;;;;11.23;5.47;;;;;;;;;;5047059;28;20032;-74
2023/04/21 09:19:28;;;;;;;16.88;5.70;;;;;;;;;;5048548;28;20592;-73
2023/04/21 09:21:55;;;;;;;11.20;5.43;;;;;;;;;;5050929;28;20552;-75
2023/04/21 09:24:21;;;;;;;12.00;6.30;;;;;;;;;;5055105;28;20017;-73
2023/04/21 09:26:51;;;;;;;12.63;5.32;;;;;;;;;;5050359;28;20025;-73
2023/04/21 09:29:17;;;;;;;13.15;5.78;;;;;;;;;;5043799;28;20103;-74
2023/04/21 09:31:44;;;;;;;21.98;9.32;;;;;;;;;;5059603;28;20124;-73
2023/04/21 09:34:23;;;;;;;12.52;6.68;;;;;;;;;;5049134;28;20021;-74
2023/04/21 09:37:10;;;;;;;13.90;5.55;;;;;;;;;;5059053;28;20398;-74
2023/04/21 09:39:36;;;;;;;11.52;5.28;;;;;;;;;;5041969;28;20020;-75
2023/04/21 09:42:02;;;;;;;10.00;5.47;;;;;;;;;;5040792;28;20581;-75
2023/04/21 09:44:28;;;;;;;10.48;5.53;;;;;;;;;;5043532;28;20025;-74
2023/04/21 09:47:01;;;;;;;10.73;5.88;;;;;;;;;;5047106;28;20524;-75
2023/04/21 09:49:29;;;;;;;13.07;6.38;;;;;;;;;;5051153;28;20123;-74
2023/04/21 09:51:57;;;;;;;14.95;6.55;;;;;;;;;;5046789;28;20372;-75
2023/04/21 09:54:28;;;;;;;19.90;6.60;;;;;;;;;;5037988;28;20050;-75
2023/04/21 09:56:56;;;;;;;12.55;5.90;;;;;;;;;;5047815;28;20173;-75
2023/04/21 09:59:32;;;;;;;10.98;6.13;;;;;;;;;;5042787;28;20506;-74
2023/04/21 10:02:00;;;;;;;14.90;5.68;;;;;;;;;;5044969;28;20031;-74
2023/04/21 10:04:27;;;;;;;10.60;5.70;;;;;;;;;;5050537;28;20166;-74
2023/04/21 10:06:54;;;;;;;13.07;6.00;;;;;;;;;;5046695;28;20025;-75
2023/04/21 10:09:22;;;;;;;8.77;5.05;;;;;;;;;;5043887;28;20090;-74
2023/04/21 10:11:48;;;;;;;11.80;5.88;;;;;;;;;;5041846;28;20040;-75
2023/04/21 10:14:14;;;;;;;10.07;5.53;;;;;;;;;;5044964;28;20029;-75
2023/04/21 10:16:42;;;;;;;10.77;5.80;;;;;;;;;;5045652;28;20497;-75
2023/04/21 10:19:30;;;;;;;9.38;6.20;;;;;;;;;;5045227;28;20029;-75
2023/04/21 10:21:56;;;;;;;12.57;5.93;;;;;;;;;;5045354;28;20495;-74
2023/04/21 10:24:23;;;;;;;16.73;7.43;;;;;;;;;;5043552;28;20029;-74
2023/04/21 10:26:50;;;;;;;12.75;5.70;;;;;;;;;;5044954;28;20362;-74
2023/04/21 10:29:16;;;;;;;11.93;6.28;;;;;;;;;;5052570;28;20017;-73
2023/04/21 10:31:54;;;;;;;12.82;6.25;;;;;;;;;;5049174;28;20083;-73
2023/04/21 10:34:37;;;;;;;9.48;6.15;;;;;;;;;;5046664;28;20037;-74
2023/04/21 10:37:03;;;;;;;9.93;5.35;;;;;;;;;;5053181;28;20052;-73
2023/04/21 10:39:32;;;;;;;13.77;5.82;;;;;;;;;;5042980;28;20094;-74
2023/04/21 10:41:59;;;;;;;10.52;5.53;;;;;;;;;;5045647;28;20317;-73
2023/04/21 10:44:28;;;;;;;15.77;6.82;;;;;;;;;;5033705;28;20065;-75
2023/04/21 10:46:55;;;;;;;17.98;7.00;;;;;;;;;;5050758;28;20490;-75
2023/04/21 10:49:23;;;;;;;15.25;6.95;;;;;;;;;;5044568;28;20075;-74
2023/04/21 10:52:01;;;;;;;18.80;6.50;;;;;;;;;;5048796;28;20052;-73
2023/04/21 10:54:40;;;;;;;15.52;5.80;;;;;;;;;;5049674;28;20104;-73
2023/04/21 10:57:07;;;;;;;13.45;6.35;;;;;;;;;;5052619;28;20049;-73
2023/04/21 10:59:34;;;;;;;12.80;6.50;;;;;;;;;;5048145;28;20025;-73
2023/04/21 11:02:01;;;;;;;10.52;5.57;;;;;;;;;;5046399;28;20415;-74
2023/04/21 11:04:27;;;;;;;11.43;5.95;;;;;;;;;;5046928;28;20037;-74
2023/04/21 11:07:07;;;;;;;12.75;6.45;;;;;;;;;;5048925;28;20017;-76
2023/04/21 11:09:33;;;;;;;10.95;6.43;;;;;;;;;;5040235;28;20074;-75
2023/04/21 11:12:01;;;;;;;13.60;6.35;;;;;;;;;;5052940;28;20034;-74
2023/04/21 11:14:27;;;;;;;11.77;6.03;;;;;;;;;;5049256;28;20095;-75
2023/04/21 11:16:54;;;;;;;12.82;6.68;;;;;;;;;;5042766;28;20080;-74
2023/04/21 11:19:24;;;;;;;14.52;6.28;;;;;;;;;;5051731;28;20020;-75
2023/04/21 11:21:51;;;;;;;12.27;6.72;;;;;;;;;;5051389;28;20025;-74
2023/04/21 11:24:17;;;;;;;10.43;5.25;;;;;;;;;;5056457;28;20028;-75
2023/04/21 11:26:43;;;;;;;12.73;6.50;;;;;;;;;;5065743;28;20482;-75
2023/04/21 11:29:10;;;;;;;13.13;5.78;;;;;;;;;;5048734;28;20033;-74
2023/04/21 11:31:37;;;;;;;12.73;6.05;;;;;;;;;;5045754;28;20024;-75
2023/04/21 11:34:06;;;;;;;10.88;5.60;;;;;;;;;;5047155;28;20455;-74
2023/04/21 11:36:36;;;;;;;11.63;5.40;;;;;;;;;;5044944;28;20063;-75
2023/04/21 11:39:09;;;;;;;16.70;8.48;;;;;;;;;;5048380;28;20029;-75
2023/04/21 11:41:35;;;;;;;13.65;6.38;;;;;;;;;;5045437;28;20085;-75
2023/04/21 11:44:02;;;;;;;13.45;6.25;;;;;;;;;;5045692;28;20032;-74
2023/04/21 11:46:28;;;;;;;14.60;6.60;;;;;;;;;;5046541;28;20056;-75
2023/04/21 11:49:13;;;;;;;18.00;6.57;;;;;;;;;;5044438;28;20090;-76
2023/04/21 11:51:41;;;;;;;11.85;5.97;;;;;;;;;;5040484;28;20434;-74
2023/04/21 11:54:08;;;;;;;13.98;6.20;;;;;;;;;;5047681;28;20032;-73
2023/04/21 11:56:36;;;;;;;13.25;6.38;;;;;;;;;;5055498;28;20079;-74
2023/04/21 11:59:06;;;;;;;19.10;6.97;;;;;;;;;;5054052;28;20032;-72
2023/04/21 12:01:32;;;;;;;10.75;6.03;;;;;;;;;;5050948;28;20018;-74
2023/04/21 12:03:58;;;;;;;11.32;5.85;;;;;;;;;;5053299;28;21202;-74
2023/04/21 12:06:28;;;;;;;9.75;6.10;;;;;;;;;;5047961;28;20041;-74
2023/04/21 12:08:55;;;;;;;14.35;5.97;;;;;;;;;;5049412;28;20056;-75
2023/04/21 12:11:21;;;;;;;13.73;6.55;;;;;;;;;;5042630;28;20044;-74
2023/04/21 12:13:47;;;;;;;12.70;5.88;;;;;;;;;;5047874;28;20035;-75
2023/04/21 12:16:13;;;;;;;15.93;6.82;;;;;;;;;;5045551;28;20465;-75
2023/04/21 12:18:39;;;;;;;11.75;6.15;;;;;;;;;;5049549;28;20348;-74
2023/04/21 12:21:05;;;;;;;15.00;7.72;;;;;;;;;;5047959;28;20053;-75
2023/04/21 12:23:32;;;;;;;13.90;7.28;;;;;;;;;;5040778;28;20403;-73
2023/04/21 12:25:58;;;;;;;11.00;6.30;;;;;;;;;;5047061;28;20025;-75
2023/04/21 12:28:25;;;;;;;15.73;5.97;;;;;;;;;;5048238;28;20055;-75
2023/04/21 12:30:52;;;;;;;8.25;5.50;;;;;;;;;;5042644;28;21025;-74
2023/04/21 12:33:19;;;;;;;11.35;6.15;;;;;;;;;;5045314;28;20082;-74
2023/04/21 12:35:45;;;;;;;13.82;6.07;;;;;;;;;;5047652;28;20029;-75
2023/04/21 12:38:11;;;;;;;10.88;6.65;;;;;;;;;;5046560;28;20025;-75
2023/04/21 12:40:37;;;;;;;15.38;7.18;;;;;;;;;;5040926;28;20031;-74
2023/04/21 12:43:04;;;;;;;19.38;6.40;;;;;;;;;;5050461;28;20055;-74
2023/04/21 12:45:31;;;;;;;11.68;5.72;;;;;;;;;;5027453;28;20071;-75
2023/04/21 12:47:58;;;;;;;12.68;5.82;;;;;;;;;;5046921;28;20083;-75
2023/04/21 12:50:27;;;;;;;15.27;6.57;;;;;;;;;;5045373;28;20028;-75
2023/04/21 12:52:54;;;;;;;11.95;5.95;;;;;;;;;;5051285;28;20056;-74
2023/04/21 12:55:20;;;;;;;11.05;5.82;;;;;;;;;;5052307;28;20065;-75
2023/04/21 12:57:46;;;;;;;9.07;5.57;;;;;;;;;;5049356;28;20029;-74
2023/04/21 13:00:13;;;;;;;8.45;5.50;;;;;;;;;;5047176;28;20017;-75
2023/04/21 13:02:40;;;;;;;10.50;5.85;;;;;;;;;;5048002;28;20036;-76
2023/04/21 13:05:08;;;;;;;6.47;5.13;;;;;;;;;;5040947;28;20020;-76
2023/04/21 13:07:34;;;;;;;9.30;5.05;;;;;;;;;;5046689;28;20016;-77
2023/04/21 13:10:01;;;;;;;12.10;5.93;;;;;;;;;;5043170;28;20039;-73
2023/04/21 13:12:27;;;;;;;10.45;6.15;;;;;;;;;;5046223;28;20483;-75
2023/04/21 13:14:53;;;;;;;12.63;5.85;;;;;;;;;;5039106;28;20060;-74
2023/04/21 13:17:19;;;;;;;10.52;5.65;;;;;;;;;;5044872;28;20025;-74
2023/04/21 13:19:46;;;;;;;8.27;5.70;;;;;;;;;;5041363;28;20487;-74
2023/04/21 13:22:12;;;;;;;12.35;5.63;;;;;;;;;;5045576;28;20024;-74
2023/04/21 13:24:38;;;;;;;14.00;6.78;;;;;;;;;;5051354;28;20502;-75
2023/04/21 13:27:05;;;;;;;10.10;5.65;;;;;;;;;;5040987;28;20141;-74
2023/04/21 13:29:33;;;;;;;10.35;5.82;;;;;;;;;;5053609;28;20544;-74
2023/04/21 13:32:03;;;;;;;9.45;5.85;;;;;;;;;;5044988;28;20029;-74
2023/04/21 13:34:29;;;;;;;10.05;5.90;;;;;;;;;;5049568;28;20029;-76
2023/04/21 13:36:56;;;;;;;12.63;6.00;;;;;;;;;;5048204;28;20052;-74
2023/04/21 13:39:22;;;;;;;6.38;5.03;;;;;;;;;;5055392;28;20032;-74
2023/04/21 13:41:48;;;;;;;9.32;5.35;;;;;;;;;;5056658;28;20029;-74
2023/04/21 13:44:14;;;;;;;6.43;5.05;;;;;;;;;;5048716;28;20655;-75
2023/04/21 13:46:44;;;;;;;8.85;5.30;;;;;;;;;;5048080;28;20029;-73
2023/04/21 13:49:10;;;;;;;10.35;5.65;;;;;;;;;;5044672;28;20036;-73
2023/04/21 13:51:37;;;;;;;13.05;6.00;;;;;;;;;;5048929;28;20090;-74
2023/04/21 13:54:03;;;;;;;9.90;5.05;;;;;;;;;;5046970;28;20032;-73
2023/04/21 13:56:30;;;;;;;11.90;5.68;;;;;;;;;;5035358;28;20180;-74
2023/04/21 13:58:58;;;;;;;10.80;5.28;;;;;;;;;;5047187;28;20025;-73
2023/04/21 14:01:24;;;;;;;11.68;6.47;;;;;;;;;;5045178;28;20055;-73
2023/04/21 14:03:53;;;;;;;12.25;5.88;;;;;;;;;;5048340;28;20021;-75
2023/04/21 14:06:19;;;;;;;9.65;6.55;;;;;;;;;;5049546;28;20079;-75
2023/04/21 14:08:45;;;;;;;13.65;5.90;;;;;;;;;;5043701;28;20475;-75
2023/04/21 14:11:11;;;;;;;11.35;6.10;;;;;;;;;;5047081;28;20041;-73
2023/04/21 14:13:37;;;;;;;14.73;6.05;;;;;;;;;;5047612;28;20037;-75
2023/04/21 14:16:03;;;;;;;12.73;6.07;;;;;;;;;;5049922;28;20052;-74
2023/04/21 14:18:30;;;;;;;11.52;5.60;;;;;;;;;;5046525;28;20037;-74
2023/04/21 14:20:56;;;;;;;11.10;6.05;;;;;;;;;;5042018;28;20021;-74
2023/04/21 14:23:22;;;;;;;11.48;5.90;;;;;;;;;;5047287;28;20025;-74
2023/04/21 14:25:48;;;;;;;12.20;6.18;;;;;;;;;;5037593;28;20029;-74
2023/04/21 14:28:14;;;;;;;11.65;6.30;;;;;;;;;;5040783;28;20030;-74
2023/04/21 14:30:41;;;;;;;11.35;6.20;;;;;;;;;;5045166;28;20112;-73
2023/04/21 14:33:08;;;;;;;14.68;7.32;;;;;;;;;;5051916;28;20021;-74
2023/04/21 14:35:36;;;;;;;10.48;5.40;;;;;;;;;;5053929;28;20028;-74